createdAt,value
2017-08-07T00:00:16.549Z,15.00
2017-08-07T00:02:44.843Z,15.00
2017-08-07T00:05:14.398Z,14.90
2017-08-07T00:07:43.036Z,14.90
2017-08-07T00:10:11.327Z,14.90
2017-08-07T00:12:39.630Z,14.80
2017-08-07T00:15:08.296Z,14.80
2017-08-07T00:17:36.671Z,14.80
2017-08-07T00:20:05.141Z,14.80
2017-08-07T00:22:34.569Z,14.70
2017-08-07T00:25:02.897Z,14.60
2017-08-07T00:27:31.848Z,14.60
2017-08-07T00:30:01.747Z,14.50
2017-08-07T00:32:30.073Z,14.50
2017-08-07T00:34:58.363Z,14.50
2017-08-07T00:37:27.009Z,14.40
2017-08-07T00:39:55.290Z,14.40
2017-08-07T00:42:23.576Z,14.40
2017-08-07T00:44:52.158Z,14.30
2017-08-07T00:47:20.457Z,14.20
2017-08-07T00:49:49.553Z,14.20
2017-08-07T00:52:20.084Z,14.20
2017-08-07T00:54:48.379Z,14.10
2017-08-07T00:57:18.156Z,14.00
2017-08-07T00:59:46.723Z,14.00
2017-08-07T01:02:15.054Z,14.00
2017-08-07T01:04:43.342Z,13.90
2017-08-07T01:07:11.971Z,13.80
2017-08-07T01:09:41.246Z,13.70
2017-08-07T01:12:09.552Z,13.70
2017-08-07T01:14:40.138Z,13.60
2017-08-07T01:17:08.426Z,13.60
2017-08-07T01:19:36.793Z,13.60
2017-08-07T01:22:05.506Z,13.60
2017-08-07T01:24:34.583Z,13.60
2017-08-07T01:27:02.903Z,13.60
2017-08-07T01:29:32.287Z,13.70
2017-08-07T01:32:00.639Z,13.60
2017-08-07T01:34:28.992Z,13.70
2017-08-07T01:36:57.553Z,13.60
2017-08-07T01:39:26.625Z,13.50
2017-08-07T01:41:54.897Z,13.50
2017-08-07T01:44:23.480Z,13.40
2017-08-07T01:46:51.809Z,13.40
2017-08-07T01:49:20.162Z,13.30
2017-08-07T01:51:48.719Z,13.30
2017-08-07T01:54:17.002Z,13.30
2017-08-07T01:56:46.045Z,13.20
2017-08-07T01:59:14.710Z,13.20
2017-08-07T02:01:43.101Z,13.20
2017-08-07T02:04:11.404Z,13.20
2017-08-07T02:06:40.802Z,13.20
2017-08-07T02:09:09.111Z,13.10
2017-08-07T02:11:38.177Z,13.10
2017-08-07T02:14:06.768Z,13.00
2017-08-07T02:16:35.093Z,13.00
2017-08-07T02:19:03.753Z,12.90
2017-08-07T02:21:36.345Z,12.80
2017-08-07T02:24:05.281Z,12.80
2017-08-07T02:26:33.590Z,12.80
2017-08-07T02:29:02.916Z,12.80
2017-08-07T02:31:31.880Z,12.70
2017-08-07T02:34:00.591Z,12.80
2017-08-07T02:36:30.250Z,12.80
2017-08-07T02:38:58.550Z,12.70
2017-08-07T02:41:26.971Z,12.80
2017-08-07T02:43:56.881Z,12.80
2017-08-07T02:46:25.151Z,12.80
2017-08-07T02:48:53.562Z,12.70
2017-08-07T02:51:22.557Z,12.70
2017-08-07T02:53:50.932Z,12.70
2017-08-07T02:56:19.208Z,12.70
2017-08-07T02:58:47.851Z,12.70
2017-08-07T03:01:17.844Z,12.70
2017-08-07T03:03:46.143Z,12.70
2017-08-07T03:06:15.819Z,12.70
2017-08-07T03:08:45.747Z,12.70
2017-08-07T03:11:14.106Z,12.70
2017-08-07T03:13:42.724Z,12.70
2017-08-07T03:16:11.060Z,12.70
2017-08-07T03:18:39.348Z,12.70
2017-08-07T03:21:07.968Z,12.60
2017-08-07T03:23:36.340Z,12.50
2017-08-07T03:26:04.687Z,12.50
2017-08-07T03:28:33.276Z,12.50
2017-08-07T03:31:02.240Z,12.40
2017-08-07T03:33:30.537Z,12.40
2017-08-07T03:35:59.932Z,12.40
2017-08-07T03:38:28.987Z,12.40
2017-08-07T03:40:57.293Z,12.40
2017-08-07T03:43:26.788Z,12.30
2017-08-07T03:45:55.142Z,12.30
2017-08-07T03:48:23.461Z,12.30
2017-08-07T03:50:52.076Z,12.30
2017-08-07T03:53:21.150Z,12.40
2017-08-07T03:55:51.004Z,12.40
2017-08-07T03:58:19.691Z,12.30
2017-08-07T04:00:48.721Z,12.30
2017-08-07T04:03:17.757Z,12.30
2017-08-07T04:05:46.452Z,12.30
2017-08-07T04:08:14.834Z,12.30
2017-08-07T04:10:43.123Z,12.30
2017-08-07T04:13:12.985Z,12.30
2017-08-07T04:15:41.305Z,12.30
2017-08-07T04:18:11.138Z,12.40
2017-08-07T04:20:39.811Z,12.50
2017-08-07T04:23:08.179Z,12.60
2017-08-07T04:25:37.396Z,12.70
2017-08-07T04:28:06.087Z,12.70
2017-08-07T04:30:34.468Z,12.80
2017-08-07T04:33:02.737Z,12.90
2017-08-07T04:35:31.353Z,13.10
2017-08-07T04:37:59.638Z,13.20
2017-08-07T04:40:28.176Z,13.30
2017-08-07T04:42:57.214Z,13.40
2017-08-07T04:45:25.512Z,13.50
2017-08-07T04:47:53.818Z,13.60
2017-08-07T04:50:23.468Z,13.80
2017-08-07T04:52:52.413Z,13.90
2017-08-07T04:55:21.560Z,14.20
2017-08-07T04:57:50.269Z,14.20
2017-08-07T05:00:18.537Z,14.30
2017-08-07T05:02:46.819Z,14.40
2017-08-07T05:05:15.434Z,14.60
2017-08-07T05:07:43.758Z,14.70
2017-08-07T05:10:12.798Z,15.10
2017-08-07T05:12:42.318Z,15.00
2017-08-07T05:15:11.969Z,15.20
2017-08-07T05:17:40.248Z,15.40
2017-08-07T05:20:08.906Z,15.50
2017-08-07T05:22:39.092Z,15.70
2017-08-07T05:25:07.408Z,15.80
2017-08-07T05:27:35.976Z,16.00
2017-08-07T05:30:04.357Z,16.10
2017-08-07T05:32:33.249Z,16.20
2017-08-07T05:35:02.006Z,16.40
2017-08-07T05:37:31.308Z,16.60
2017-08-07T05:40:00.398Z,16.70
2017-08-07T05:42:29.061Z,16.70
2017-08-07T05:45:00.315Z,16.80
2017-08-07T05:47:29.680Z,16.90
2017-08-07T05:49:57.996Z,17.00
2017-08-07T05:52:27.322Z,17.10
2017-08-07T05:54:56.698Z,17.30
2017-08-07T05:57:25.001Z,17.30
2017-08-07T05:59:53.304Z,17.40
2017-08-07T06:02:22.711Z,17.60
2017-08-07T06:04:52.056Z,17.70
2017-08-07T06:07:20.377Z,17.70
2017-08-07T06:09:48.983Z,17.90
2017-08-07T06:12:18.062Z,18.10
2017-08-07T06:14:46.347Z,18.00
2017-08-07T06:17:14.940Z,18.20
2017-08-07T06:19:43.258Z,18.30
2017-08-07T06:22:11.576Z,18.40
2017-08-07T06:24:40.156Z,18.50
2017-08-07T06:27:08.487Z,18.60
2017-08-07T06:29:37.553Z,18.80
2017-08-07T06:32:06.188Z,18.80
2017-08-07T06:34:35.434Z,19.00
2017-08-07T06:37:07.793Z,19.10
2017-08-07T06:39:36.372Z,19.30
2017-08-07T06:42:05.208Z,19.40
2017-08-07T06:44:33.494Z,19.50
2017-08-07T06:47:02.200Z,19.50
2017-08-07T06:49:30.558Z,19.60
2017-08-07T06:51:58.824Z,19.70
2017-08-07T06:54:27.437Z,19.70
2017-08-07T06:56:56.774Z,19.80
2017-08-07T06:59:25.868Z,20.10
2017-08-07T07:01:55.307Z,20.10
2017-08-07T07:04:23.653Z,20.10
2017-08-07T07:06:51.942Z,20.20
2017-08-07T07:09:20.540Z,20.20
2017-08-07T07:11:48.848Z,20.40
2017-08-07T07:14:17.115Z,20.40
2017-08-07T07:16:45.762Z,20.50
2017-08-07T07:19:14.852Z,20.50
2017-08-07T07:21:43.577Z,20.60
2017-08-07T07:24:12.848Z,20.70
2017-08-07T07:26:41.178Z,20.80
2017-08-07T07:29:10.668Z,20.80
2017-08-07T07:31:40.038Z,20.80
2017-08-07T07:34:08.329Z,20.70
2017-08-07T07:36:36.669Z,20.90
2017-08-07T07:39:05.874Z,21.00
2017-08-07T07:41:34.157Z,21.00
2017-08-07T07:44:02.504Z,21.10
2017-08-07T07:46:31.844Z,21.20
2017-08-07T07:49:01.646Z,21.10
2017-08-07T07:51:29.984Z,21.20
2017-08-07T07:53:59.101Z,21.30
2017-08-07T07:56:27.416Z,21.40
2017-08-07T07:58:56.537Z,21.50
2017-08-07T08:01:25.128Z,21.60
2017-08-07T08:03:54.708Z,21.60
2017-08-07T08:06:24.225Z,21.70
2017-08-07T08:08:53.768Z,21.70
2017-08-07T08:11:23.029Z,21.70
2017-08-07T08:13:53.017Z,21.90
2017-08-07T08:16:21.704Z,21.90
2017-08-07T08:18:50.130Z,21.90
2017-08-07T08:21:18.458Z,22.00
2017-08-07T08:23:47.215Z,22.10
2017-08-07T08:26:16.452Z,22.20
2017-08-07T08:28:44.777Z,22.20
2017-08-07T08:33:51.680Z,22.20
2017-08-07T08:36:23.670Z,22.40
2017-08-07T08:38:51.946Z,22.30
2017-08-07T08:41:20.301Z,22.50
2017-08-07T08:43:49.618Z,22.80
2017-08-07T08:46:18.278Z,22.80
2017-08-07T08:48:48.287Z,23.10
2017-08-07T08:51:16.993Z,23.10
2017-08-07T08:53:45.268Z,23.00
2017-08-07T08:56:13.548Z,23.10
2017-08-07T08:58:42.124Z,23.20
2017-08-07T09:01:11.361Z,23.10
2017-08-07T09:03:40.442Z,23.00
2017-08-07T09:06:09.045Z,23.00
2017-08-07T09:08:38.114Z,23.00
2017-08-07T09:11:06.388Z,22.90
2017-08-07T09:13:35.792Z,23.10
2017-08-07T09:16:04.103Z,23.10
2017-08-07T09:18:32.364Z,23.20
2017-08-07T09:21:01.010Z,23.30
2017-08-07T09:23:29.396Z,23.20
2017-08-07T09:25:57.731Z,23.10
2017-08-07T09:28:26.406Z,23.30
2017-08-07T09:30:54.721Z,23.40
2017-08-07T09:33:23.825Z,24.00
2017-08-07T09:35:52.502Z,24.00
2017-08-07T09:38:21.928Z,24.00
2017-08-07T09:40:51.103Z,24.30
2017-08-07T09:43:19.694Z,24.30
2017-08-07T09:45:48.010Z,24.30
2017-08-07T09:48:17.532Z,24.20
2017-08-07T09:50:46.165Z,24.20
2017-08-07T09:53:14.754Z,24.30
2017-08-07T09:55:43.072Z,24.80
2017-08-07T09:58:11.712Z,25.50
2017-08-07T10:00:41.771Z,26.50
2017-08-07T10:03:11.268Z,26.60
2017-08-07T10:05:39.875Z,26.60
2017-08-07T10:08:08.942Z,26.10
2017-08-07T10:10:37.234Z,26.10
2017-08-07T10:13:05.804Z,26.10
2017-08-07T10:15:35.272Z,27.10
2017-08-07T10:18:03.597Z,27.10
2017-08-07T10:20:32.235Z,27.10
2017-08-07T10:23:02.115Z,27.30
2017-08-07T10:25:32.238Z,27.50
2017-08-07T10:28:00.521Z,27.50
2017-08-07T10:30:28.859Z,28.20
2017-08-07T10:32:57.450Z,28.80
2017-08-07T10:35:25.847Z,29.40
2017-08-07T10:37:54.538Z,29.60
2017-08-07T10:40:24.148Z,30.10
2017-08-07T10:42:52.521Z,30.60
2017-08-07T10:45:20.802Z,31.10
2017-08-07T10:47:49.426Z,31.10
2017-08-07T10:50:17.757Z,31.10
2017-08-07T10:55:16.517Z,32.40
2017-08-07T10:57:45.128Z,33.00
2017-08-07T11:00:13.385Z,33.30
2017-08-07T11:02:43.899Z,34.50
2017-08-07T11:05:13.364Z,36.30
2017-08-07T11:07:43.373Z,37.70
2017-08-07T11:10:13.068Z,38.60
2017-08-07T11:12:42.173Z,38.50
2017-08-07T11:15:11.632Z,40.80
2017-08-07T11:17:40.913Z,40.80
2017-08-07T11:20:10.322Z,45.30
2017-08-07T11:22:39.383Z,42.90
2017-08-07T11:25:08.308Z,42.80
2017-08-07T11:27:37.498Z,43.70
2017-08-07T11:30:06.658Z,44.20
2017-08-07T11:32:35.262Z,44.20
2017-08-07T11:35:03.568Z,45.00
2017-08-07T11:37:33.022Z,44.30
2017-08-07T11:40:02.420Z,44.30
2017-08-07T11:42:30.706Z,44.20
2017-08-07T11:45:00.264Z,45.20
2017-08-07T11:47:28.989Z,45.20
2017-08-07T11:50:00.344Z,41.90
2017-08-07T11:54:59.221Z,40.70
2017-08-07T11:57:33.493Z,38.20
2017-08-07T12:00:02.187Z,38.20
2017-08-07T12:02:30.549Z,37.30
2017-08-07T12:05:00.730Z,38.50
2017-08-07T12:07:30.048Z,38.50
2017-08-07T12:09:59.150Z,39.20
2017-08-07T12:12:27.801Z,39.20
2017-08-07T12:14:56.433Z,39.20
2017-08-07T12:17:25.080Z,39.30
2017-08-07T12:19:54.211Z,40.00
2017-08-07T12:22:23.115Z,40.50
2017-08-07T12:24:51.408Z,41.70
2017-08-07T12:27:20.495Z,39.50
2017-08-07T12:29:49.145Z,38.50
2017-08-07T12:32:17.424Z,39.80
2017-08-07T12:34:46.638Z,39.90
2017-08-07T12:37:17.125Z,40.50
2017-08-07T12:39:46.203Z,40.40
2017-08-07T12:42:16.245Z,40.40
2017-08-07T12:44:44.550Z,40.90
2017-08-07T12:47:15.051Z,41.60
2017-08-07T12:49:44.402Z,42.20
2017-08-07T12:52:12.738Z,42.20
2017-08-07T12:54:41.788Z,42.00
2017-08-07T12:57:10.812Z,42.00
2017-08-07T12:59:39.912Z,42.10
2017-08-07T13:02:09.369Z,44.30
2017-08-07T13:04:37.952Z,44.30
2017-08-07T13:07:07.383Z,49.20
2017-08-07T13:09:35.688Z,49.10
2017-08-07T13:12:04.317Z,47.20
2017-08-07T13:14:33.374Z,45.40
2017-08-07T13:17:01.743Z,45.40
2017-08-07T13:19:30.381Z,45.60
2017-08-07T13:24:28.242Z,43.60
2017-08-07T13:26:56.943Z,42.00
2017-08-07T13:29:26.874Z,40.10
2017-08-07T13:31:56.705Z,39.90
2017-08-07T13:34:25.762Z,40.60
2017-08-07T13:36:54.181Z,40.60
2017-08-07T13:39:23.957Z,43.10
2017-08-07T13:41:52.368Z,43.00
2017-08-07T13:44:20.662Z,42.90
2017-08-07T13:46:49.744Z,42.20
2017-08-07T13:49:18.824Z,43.30
2017-08-07T13:51:47.264Z,43.30
2017-08-07T13:54:15.917Z,42.70
2017-08-07T13:56:45.050Z,43.80
2017-08-07T13:59:14.286Z,43.80
2017-08-07T14:01:42.881Z,42.90
2017-08-07T14:06:37.849Z,40.40
2017-08-07T14:09:06.460Z,40.40
2017-08-07T14:11:34.772Z,41.80
2017-08-07T14:14:03.106Z,43.10
2017-08-07T14:16:32.538Z,45.50
2017-08-07T14:19:02.020Z,47.00
2017-08-07T14:21:31.176Z,47.30
2017-08-07T14:24:00.969Z,46.90
2017-08-07T14:26:30.178Z,46.80
2017-08-07T14:28:58.494Z,46.90
2017-08-07T14:31:27.982Z,45.50
2017-08-07T14:33:56.343Z,45.90
2017-08-07T14:36:29.426Z,43.50
2017-08-07T14:38:57.811Z,43.00
2017-08-07T14:41:26.116Z,44.70
2017-08-07T14:43:54.748Z,44.70
2017-08-07T14:46:23.837Z,46.40
2017-08-07T14:48:52.156Z,46.40
2017-08-07T14:51:20.775Z,46.30
2017-08-07T14:53:49.120Z,46.10
2017-08-07T14:56:18.561Z,46.30
2017-08-07T14:58:47.315Z,46.30
2017-08-07T15:01:15.644Z,44.70
2017-08-07T15:03:43.954Z,45.50
2017-08-07T15:06:12.661Z,46.70
2017-08-07T15:08:42.575Z,45.00
2017-08-07T15:11:10.913Z,45.00
2017-08-07T15:16:09.080Z,41.80
2017-08-07T15:18:37.365Z,40.60
2017-08-07T15:21:05.953Z,41.50
2017-08-07T15:23:35.088Z,44.10
2017-08-07T15:26:03.410Z,44.00
2017-08-07T15:28:32.792Z,42.50
2017-08-07T15:31:01.165Z,42.40
2017-08-07T15:33:30.050Z,42.50
2017-08-07T15:35:59.357Z,41.60
2017-08-07T15:38:27.716Z,40.60
2017-08-07T15:40:57.444Z,40.00
2017-08-07T15:43:27.690Z,39.60
2017-08-07T15:45:56.029Z,39.60
2017-08-07T15:48:25.466Z,34.60
2017-08-07T15:50:54.107Z,34.40
2017-08-07T15:53:23.221Z,32.60
2017-08-07T15:55:51.501Z,32.50
2017-08-07T15:58:20.286Z,32.70
2017-08-07T16:00:48.616Z,32.40
2017-08-07T16:03:16.907Z,31.80
2017-08-07T16:05:45.510Z,31.10
2017-08-07T16:08:13.794Z,31.10
2017-08-07T16:10:42.075Z,30.90
2017-08-07T16:13:10.670Z,30.80
2017-08-07T16:15:38.996Z,30.60
2017-08-07T16:18:08.162Z,30.40
2017-08-07T16:20:38.200Z,30.30
2017-08-07T16:23:07.272Z,29.90
2017-08-07T16:25:35.585Z,29.90
2017-08-07T16:28:05.923Z,29.80
2017-08-07T16:30:34.749Z,29.50
2017-08-07T16:33:03.070Z,28.30
2017-08-07T16:35:31.649Z,28.00
2017-08-07T16:37:59.959Z,27.70
2017-08-07T16:40:29.058Z,27.60
2017-08-07T16:42:58.448Z,27.60
2017-08-07T16:45:26.842Z,27.50
2017-08-07T16:47:55.192Z,27.50
2017-08-07T16:50:24.510Z,27.50
2017-08-07T16:52:52.809Z,27.10
2017-08-07T16:55:21.098Z,27.10
2017-08-07T16:57:49.760Z,27.10
2017-08-07T17:00:18.440Z,26.80
2017-08-07T17:02:46.763Z,26.70
2017-08-07T17:05:15.336Z,26.60
2017-08-07T17:07:43.622Z,26.50
2017-08-07T17:10:11.895Z,26.60
2017-08-07T17:12:41.310Z,26.70
2017-08-07T17:15:09.579Z,26.40
2017-08-07T17:17:37.893Z,26.40
2017-08-07T17:20:07.279Z,26.00
2017-08-07T17:22:35.603Z,26.00
2017-08-07T17:25:03.892Z,25.90
2017-08-07T17:27:32.776Z,25.90
2017-08-07T17:30:01.537Z,25.80
2017-08-07T17:32:29.840Z,25.80
2017-08-07T17:34:58.376Z,25.60
2017-08-07T17:37:26.718Z,25.30
2017-08-07T17:39:56.000Z,25.20
2017-08-07T17:42:24.586Z,25.20
2017-08-07T17:44:52.894Z,25.30
2017-08-07T17:47:21.233Z,25.20
2017-08-07T17:49:50.300Z,25.10
2017-08-07T17:52:19.435Z,24.90
2017-08-07T17:54:47.794Z,24.90
2017-08-07T17:57:16.383Z,24.80
2017-08-07T17:59:45.559Z,24.80
2017-08-07T18:02:14.028Z,24.70
2017-08-07T18:04:42.655Z,24.60
2017-08-07T18:07:11.352Z,24.50
2017-08-07T18:09:39.685Z,24.40
2017-08-07T18:12:09.507Z,24.20
2017-08-07T18:14:37.859Z,24.20
2017-08-07T18:17:07.588Z,24.20
2017-08-07T18:19:36.260Z,24.10
2017-08-07T18:22:04.594Z,24.00
2017-08-07T18:24:32.917Z,23.90
2017-08-07T18:27:01.652Z,23.90
2017-08-07T18:29:31.065Z,23.70
2017-08-07T18:32:00.094Z,23.70
2017-08-07T18:34:28.759Z,23.60
2017-08-07T18:36:57.421Z,23.50
2017-08-07T18:39:25.744Z,23.40
2017-08-07T18:41:54.472Z,23.40
2017-08-07T18:44:22.908Z,23.30
2017-08-07T18:46:51.958Z,23.20
2017-08-07T18:49:20.564Z,23.20
2017-08-07T18:51:49.675Z,23.10
2017-08-07T18:54:18.069Z,23.00
2017-08-07T18:56:47.428Z,23.00
2017-08-07T18:59:15.809Z,23.00
2017-08-07T19:01:44.125Z,22.90
2017-08-07T19:04:13.153Z,22.90
2017-08-07T19:06:42.803Z,22.70
2017-08-07T19:09:11.102Z,22.70
2017-08-07T19:11:40.147Z,22.60
2017-08-07T19:14:08.441Z,22.50
2017-08-07T19:16:36.813Z,22.40
2017-08-07T19:19:05.493Z,22.30
2017-08-07T19:21:33.809Z,22.20
2017-08-07T19:24:02.107Z,22.10
2017-08-07T19:26:30.701Z,21.90
2017-08-07T19:29:02.042Z,21.80
2017-08-07T19:31:30.951Z,21.70
2017-08-07T19:33:59.261Z,21.60
2017-08-07T19:36:31.419Z,21.40
2017-08-07T19:39:00.004Z,21.40
2017-08-07T19:41:29.222Z,21.30
2017-08-07T19:43:58.766Z,21.20
2017-08-07T19:46:27.123Z,21.20
2017-08-07T19:48:56.242Z,21.00
2017-08-07T19:51:24.814Z,21.00
2017-08-07T19:53:53.155Z,20.90
2017-08-07T19:56:21.430Z,20.90
2017-08-07T19:58:50.772Z,20.80
2017-08-07T20:01:19.844Z,20.70
2017-08-07T20:03:48.155Z,20.60
2017-08-07T20:06:17.630Z,20.50
2017-08-07T20:08:45.945Z,20.50
2017-08-07T20:11:15.018Z,20.30
2017-08-07T20:13:43.694Z,20.20
2017-08-07T20:16:12.001Z,20.20
2017-08-07T20:18:41.003Z,20.10
2017-08-07T20:21:09.676Z,20.10
2017-08-07T20:23:37.995Z,20.10
2017-08-07T20:26:06.432Z,20.00
2017-08-07T20:28:35.131Z,19.90
2017-08-07T20:31:03.410Z,19.90
2017-08-07T20:33:31.714Z,19.80
2017-08-07T20:36:00.289Z,19.70
2017-08-07T20:38:28.584Z,19.70
2017-08-07T20:40:57.008Z,19.60
2017-08-07T20:43:25.649Z,19.60
2017-08-07T20:45:53.981Z,19.50
2017-08-07T20:48:23.199Z,19.50
2017-08-07T20:50:52.549Z,19.40
2017-08-07T20:53:20.918Z,19.40
2017-08-07T20:55:49.234Z,19.30
2017-08-07T20:58:17.870Z,19.30
2017-08-07T21:00:46.197Z,19.20
2017-08-07T21:03:16.256Z,19.10
2017-08-07T21:05:46.292Z,19.10
2017-08-07T21:08:14.641Z,19.10
2017-08-07T21:10:43.556Z,19.00
2017-08-07T21:13:15.149Z,18.90
2017-08-07T21:15:44.100Z,18.90
2017-08-07T21:18:12.392Z,18.80
2017-08-07T21:20:42.040Z,18.80
2017-08-07T21:23:10.317Z,18.80
2017-08-07T21:25:38.585Z,18.70
2017-08-07T21:28:07.141Z,18.60
2017-08-07T21:30:35.465Z,18.60
2017-08-07T21:33:03.814Z,18.50
2017-08-07T21:35:32.948Z,18.50
2017-08-07T21:38:01.261Z,18.50
2017-08-07T21:40:29.615Z,18.40
2017-08-07T21:42:58.372Z,18.40
2017-08-07T21:45:26.920Z,18.40
2017-08-07T21:47:55.197Z,18.40
2017-08-07T21:50:23.880Z,18.30
2017-08-07T21:52:52.200Z,18.30
2017-08-07T21:55:20.526Z,18.30
2017-08-07T21:57:49.152Z,18.30
2017-08-07T22:00:18.259Z,18.20
2017-08-07T22:02:48.645Z,18.20
2017-08-07T22:05:20.897Z,18.20
2017-08-07T22:07:49.210Z,18.10
2017-08-07T22:10:18.901Z,18.10
2017-08-07T22:12:47.558Z,18.10
2017-08-07T22:15:16.523Z,18.00
2017-08-07T22:17:45.165Z,17.90
2017-08-07T22:20:13.769Z,17.90
2017-08-07T22:22:42.821Z,17.90
2017-08-07T22:25:11.126Z,17.80
2017-08-07T22:27:39.788Z,17.80
2017-08-07T22:30:09.377Z,17.70
2017-08-07T22:32:38.486Z,17.60
2017-08-07T22:35:08.233Z,17.60
2017-08-07T22:37:37.328Z,17.50
2017-08-07T22:40:06.360Z,17.50
2017-08-07T22:42:34.981Z,17.50
2017-08-07T22:45:03.823Z,17.50
2017-08-07T22:47:32.117Z,17.50
2017-08-07T22:50:00.745Z,17.50
2017-08-07T22:52:29.117Z,17.40
2017-08-07T22:54:57.500Z,17.40
2017-08-07T22:57:26.120Z,17.40
2017-08-07T22:59:54.485Z,17.40
2017-08-07T23:02:22.794Z,17.40
2017-08-07T23:04:52.139Z,17.40
2017-08-07T23:07:20.444Z,17.40
2017-08-07T23:09:48.746Z,17.30
2017-08-07T23:12:18.141Z,17.40
2017-08-07T23:14:46.438Z,17.30
2017-08-07T23:17:15.628Z,17.30
2017-08-07T23:19:44.846Z,17.30
2017-08-07T23:22:13.896Z,17.20
2017-08-07T23:24:42.623Z,17.20
2017-08-07T23:27:12.028Z,17.20
2017-08-07T23:29:40.843Z,17.10
2017-08-07T23:32:09.951Z,17.10
2017-08-07T23:34:38.525Z,17.10
2017-08-07T23:37:06.974Z,17.00
2017-08-07T23:39:35.346Z,17.00
2017-08-07T23:42:03.959Z,17.00
2017-08-07T23:44:33.164Z,16.90
2017-08-07T23:47:01.562Z,16.90
2017-08-07T23:49:30.781Z,16.90
2017-08-07T23:52:00.352Z,16.80
2017-08-07T23:54:28.646Z,16.80
2017-08-07T23:56:57.219Z,16.80
2017-08-07T23:59:25.853Z,16.80
